• Join FlightAware (Why Join?)
  • Login
  • US Flag 
09:36PM EST


 

Airport Tracker/Info


-or-


 

Live Flight TrackerFlight Track Log ✈ SWA446 ✈ 27-Apr-2012 ✈ KLAS - KOMA

Flight Track Log - Related Links

Times and Time Zones

All times are in EDT time to prevent confusion due to time zone crossing. See the SWA446 flight status page for this flight to view local times or setup timezone preferences in your user account.

Time Position Orientation Groundspeed Altitude Reporting Facility
EDT Latitude Longitude Course Direction KTS MPH feet Rate Location/Type
01:30PM 35.8833 -114.2194 287° West  Level FlightAware Approximate
01:31PM 35.9000 -114.0835 284° West  Level FlightAware Approximate
01:32PM 36.1058 -115.1522 69° East 152 175 3,300  Level Los Angeles Center
01:33PM 36.1344 -115.0619 83° East 221 254 6,100 2,040 Climbing Los Angeles Center
01:34PM 36.1439 -114.9614 85° East 277 319 8,800 2,460 Climbing Los Angeles Center
01:35PM 36.1475 -114.9047 105° East 307 353 10,300 2,280 Climbing Los Angeles Center
01:36PM 36.1233 -114.7922 105° East 327 376 12,500 2,700 Climbing Los Angeles Center
01:37PM 36.0969 -114.6692 105° East 346 398 15,800 3,060 Climbing Los Angeles Center
01:38PM 36.0683 -114.5386 106° East 370 426 18,700 2,820 Climbing Los Angeles Center
01:39PM 36.0372 -114.4031 105° East 389 448 21,400 2,460 Climbing Los Angeles Center
01:40PM 36.0058 -114.2575 106° East 411 473 23,700 2,280 Climbing Los Angeles Center
01:41PM 35.9700 -114.1044 106° East 440 506 26,000 2,100 Climbing Los Angeles Center
01:42PM 35.9339 -113.9489 100° East 457 526 27,900 1,800 Climbing Los Angeles Center
01:43PM 35.9078 -113.7725 102° East 468 539 29,700 1,740 Climbing Los Angeles Center
01:44PM 35.8794 -113.6017 103° East 488 562 31,400 1,800 Climbing Los Angeles Center
01:45PM 35.8511 -113.4489 101° East 502 578 33,300 1,800 Climbing Los Angeles Center
01:46PM 35.8242 -113.2806 101° East 508 585 35,000 1,560 Climbing Los Angeles Center
01:47PM 35.7972 -113.1125 101° East 503 579 36,500 1,380 Climbing Los Angeles Center
01:48PM 35.7700 -112.9419 101° East 503 579 37,800 1,200 Climbing Los Angeles Center
01:49PM 35.7425 -112.7717 102° East 503 579 39,000 360 Climbing Los Angeles Center
01:51PM 35.6753 -112.3806 101° East 486 559 39,000  Level Albuquerque Center
01:52PM 35.6489 -112.2153 102° East 486 559 39,000  Level Albuquerque Center
01:53PM 35.6200 -112.0500 101° East 491 565 39,000  Level Albuquerque Center
01:54PM 35.5947 -111.8875 92° East 491 565 39,000  Level Albuquerque Center
01:55PM 35.5886 -111.7186 92° East 491 565 39,000  Level Albuquerque Center
01:56PM 35.5842 -111.5525 93° East 491 565 39,000  Level Albuquerque Center
01:57PM 35.5775 -111.3811 94° East 491 565 39,000  Level Albuquerque Center
01:58PM 35.5683 -111.2144 91° East 491 565 39,000  Level Albuquerque Center
01:59PM 35.5653 -111.0508 92° East 491 565 39,000  Level Albuquerque Center
02:00PM 35.5614 -110.9003 93° East 485 558 39,000  Level Albuquerque Center
02:01PM 35.5542 -110.7186 93° East 479 551 39,000  Level Albuquerque Center
02:02PM 35.5481 -110.5575 92° East 479 551 39,000  Level Albuquerque Center
02:03PM 35.5436 -110.4067 93° East 479 551 39,000  Level Albuquerque Center
02:04PM 35.5372 -110.2431 92° East 479 551 39,000 -600 Level Albuquerque Center
02:05PM 35.5311 -110.0617 93° East 479 551 37,800 -1,020 Descending Albuquerque Center
02:06PM 35.5242 -109.8931 94° East 484 557 37,000 -420 Descending Albuquerque Center
02:07PM 35.5150 -109.7419 93° East 484 557 37,000  Level Albuquerque Center
02:08PM 35.5081 -109.5581 93° East 484 557 37,000  Level Albuquerque Center
02:09PM 35.5006 -109.3922 93° East 490 564 37,000  Level Albuquerque Center
02:10PM 35.4928 -109.2236 94° East 490 564 37,000  Level Albuquerque Center
02:11PM 35.4847 -109.0728 94° East 484 557 37,000  Level Albuquerque Center
02:12PM 35.4744 -108.8889 101° East 484 557 37,000  Level Albuquerque Center
02:13PM 35.4472 -108.7253 105° East 484 557 37,000  Level Albuquerque Center
02:14PM 35.4156 -108.5819 104° East 484 557 37,000  Level Albuquerque Center
02:15PM 35.3797 -108.4058 103° East 484 557 37,000  Level Albuquerque Center
02:16PM 35.3494 -108.2475 105° East 484 557 37,000  Level Albuquerque Center
02:17PM 35.3153 -108.0867 104° East 484 557 37,000  Level Albuquerque Center
02:18PM 35.2867 -107.9464 105° East 472 543 37,000  Level Albuquerque Center
02:19PM 35.2478 -107.7706 104° East 472 543 37,000  Level Albuquerque Center
02:20PM 35.2150 -107.6078 104° East 477 549 37,000  Level Albuquerque Center
02:21PM 35.1817 -107.4500 104° East 477 549 37,000  Level Albuquerque Center
02:22PM 35.1506 -107.3028 101° East 482 555 37,000  Level Albuquerque Center
02:23PM 35.1211 -107.1250 90° East 482 555 37,000  Level Albuquerque Center
02:24PM 35.1206 -106.9600 89° East 488 562 37,000  Level Albuquerque Center
02:25PM 35.1219 -106.8050 90° East 488 562 37,000  Level Albuquerque Center
02:26PM 35.1211 -106.6400 89° East 495 570 37,000  Level Albuquerque Center
02:27PM 35.1222 -106.4725 91° East 490 564 37,000  Level Albuquerque Center
02:28PM 35.1208 -106.3022 91° East 490 564 37,000  Level Albuquerque Center
02:29PM 35.1192 -106.1372 91° East 496 571 37,000  Level Albuquerque Center
02:30PM 35.1175 -105.9697 89° East 496 571 37,000  Level Albuquerque Center
02:31PM 35.1194 -105.8019 92° East 496 571 37,000  Level Albuquerque Center
02:32PM 35.1150 -105.6192 89° East 496 571 37,000  Level Albuquerque Center
02:33PM 35.1164 -105.4492 90° East 491 565 37,000  Level Albuquerque Center
02:34PM 35.1158 -105.2867 91° East 491 565 37,000  Level Albuquerque Center
02:35PM 35.1128 -105.1192 73° East 486 559 37,000  Level Albuquerque Center
02:36PM 35.1517 -104.9631 58° Northeast 479 551 37,000  Level Albuquerque Center
02:37PM 35.2239 -104.8211 59° Northeast 473 544 37,000  Level Albuquerque Center
02:38PM 35.2936 -104.6814 59° Northeast 484 557 37,000  Level Albuquerque Center
02:39PM 35.3636 -104.5392 59° Northeast 484 557 37,000  Level Albuquerque Center
02:40PM 35.4272 -104.4094 58° Northeast 489 563 37,000  Level Albuquerque Center
02:41PM 35.4986 -104.2689 59° Northeast 489 563 37,000  Level Albuquerque Center
02:42PM 35.5681 -104.1283 59° Northeast 484 557 37,000  Level Albuquerque Center
02:43PM 35.6450 -103.9719 60° Northeast 484 557 37,000  Level Albuquerque Center
02:44PM 35.7139 -103.8258 59° Northeast 484 557 37,000  Level Albuquerque Center
02:45PM 35.7847 -103.6817 58° Northeast 484 557 37,000  Level Albuquerque Center
02:46PM 35.8553 -103.5400 60° Northeast 490 564 37,000  Level Albuquerque Center
02:47PM 35.9256 -103.3906 59° Northeast 490 564 37,000  Level Albuquerque Center
02:48PM 35.9978 -103.2406 59° Northeast 495 570 37,000  Level Albuquerque Center
02:49PM 36.0697 -103.0928 61° Northeast 502 578 37,000  Level Albuquerque Center
02:50PM 36.1375 -102.9425 60° Northeast 502 578 37,000  Level Albuquerque Center
02:51PM 36.1992 -102.8103 59° Northeast 502 578 37,000  Level Albuquerque Center
02:52PM 36.2728 -102.6594 60° Northeast 502 578 37,000  Level Albuquerque Center
02:54PM 36.4300 -102.3211 59° Northeast 505 581 37,000  Level Kansas City Center
02:55PM 36.5003 -102.1731 60° Northeast 505 581 37,000  Level Kansas City Center
02:56PM 36.5703 -102.0222 60° Northeast 505 581 37,000  Level Kansas City Center
02:57PM 36.6406 -101.8686 61° Northeast 505 581 37,000  Level Kansas City Center
02:58PM 36.7081 -101.7194 61° Northeast 500 575 37,000  Level Kansas City Center
02:59PM 36.7733 -101.5725 61° Northeast 494 568 37,000  Level Kansas City Center
03:00PM 36.8381 -101.4281 60° Northeast 482 555 37,000  Level Kansas City Center
03:01PM 36.8978 -101.2983 61° Northeast 482 555 37,000  Level Kansas City Center
03:02PM 36.9694 -101.1381 61° Northeast 477 549 37,000  Level Kansas City Center
03:03PM 37.0336 -100.9953 55° Northeast 482 555 37,000  Level Kansas City Center
03:04PM 37.1028 -100.8711 53° Northeast 477 549 37,000  Level Kansas City Center
03:05PM 37.1808 -100.7394 53° Northeast 470 541 37,000  Level Kansas City Center
03:06PM 37.2678 -100.5925 54° Northeast 476 548 37,000  Level Kansas City Center
03:07PM 37.3433 -100.4600 54° Northeast 476 548 37,000  Level Kansas City Center
03:08PM 37.4117 -100.3397 53° Northeast 476 548 37,000  Level Kansas City Center
03:09PM 37.4958 -100.1997 49° Northeast 466 536 37,000  Level Kansas City Center
03:10PM 37.5786 -100.0775 50° Northeast 461 531 37,000  Level Kansas City Center
03:11PM 37.6525 -99.9675 51° Northeast 452 520 37,000  Level Kansas City Center
03:12PM 37.7403 -99.8294 50° Northeast 457 526 37,000  Level Kansas City Center
03:13PM 37.8208 -99.7064 50° Northeast 457 526 37,000  Level Kansas City Center
03:14PM 37.9033 -99.5831 49° Northeast 457 526 37,000  Level Kansas City Center
03:15PM 37.9767 -99.4747 50° Northeast 457 526 37,000  Level Kansas City Center
03:16PM 38.0611 -99.3486 47° Northeast 457 526 37,000  Level Kansas City Center
03:17PM 38.1492 -99.2300 46° Northeast 462 532 37,000  Level Kansas City Center
03:18PM 38.2417 -99.1092 45° Northeast 468 539 37,000  Level Kansas City Center
03:19PM 38.3358 -98.9906 44° Northeast 468 539 37,000  Level Kansas City Center
03:20PM 38.4297 -98.8742 42° Northeast 468 539 37,000  Level Kansas City Center
03:21PM 38.5256 -98.7631 44° Northeast 468 539 37,000  Level Kansas City Center
03:22PM 38.6217 -98.6436 46° Northeast 468 539 37,000  Level Kansas City Center
03:23PM 38.7133 -98.5239 51° Northeast 473 544 37,000  Level Kansas City Center
03:24PM 38.7947 -98.3950 56° Northeast 473 544 37,000  Level Kansas City Center
03:25PM 38.8678 -98.2550 57° Northeast 473 544 37,000  Level Kansas City Center
03:26PM 38.9389 -98.1144 56° Northeast 468 539 37,000 -120 Level Kansas City Center
03:27PM 39.0183 -97.9633 63° Northeast 468 539 36,800 -600 Descending Kansas City Center
03:28PM 39.0767 -97.8164 68° East 456 525 35,800 -900 Descending Kansas City Center
03:29PM 39.1247 -97.6633 67° East 457 526 35,000 -420 Descending Kansas City Center
03:30PM 39.1744 -97.5103 68° East 462 532 35,000  Level Kansas City Center
03:31PM 39.2175 -97.3728 67° East 462 532 35,000  Level Kansas City Center
03:32PM 39.2669 -97.2219 69° East 462 532 35,000  Level Kansas City Center
03:33PM 39.3186 -97.0519 68° East 457 526 35,000  Level Kansas City Center
03:34PM 39.3653 -96.9033 68° East 451 519 35,000  Level Kansas City Center
03:35PM 39.4075 -96.7706 68° East 446 513 35,000  Level Kansas City Center
03:36PM 39.4583 -96.6053 69° East 446 513 35,000  Level Kansas City Center
03:37PM 39.5028 -96.4533 68° East 451 519 35,000  Level Kansas City Center
03:38PM 39.5508 -96.3011 69° East 451 519 35,000 -480 Level Kansas City Center
03:39PM 39.5925 -96.1622 68° East 451 519 34,100 -1,020 Descending Kansas City Center
03:40PM 39.6469 -95.9911 69° East 451 519 33,000 -1,080 Descending Kansas City Center
03:41PM 39.6903 -95.8408 68° East 451 519 32,000 -1,020 Descending Kansas City Center
03:42PM 39.7356 -95.6933 70° East 446 513 31,000 -540 Descending Kansas City Center
03:43PM 39.7722 -95.5642 68° East 435 501 31,000 -360 Level Kansas City Center
03:44PM 39.8214 -95.4056 70° East 430 495 30,300 -900 Descending Kansas City Center
03:45PM 39.8619 -95.2628 65° Northeast 430 495 29,300 -1,020 Descending Kansas City Center
03:47PM 39.9622 -94.9756 North 426 490 27,100 -1,020 Descending Minneapolis Center
03:48PM 40.0750 -94.9511 353° North 373 429 26,100 -1,020 Descending Minneapolis Center
03:49PM 40.1889 -94.9700 351° North 361 415 25,100 -1,500 Descending Minneapolis Center
03:50PM 40.2989 -94.9917 353° North 376 433 23,200 -1,920 Descending Minneapolis Center
03:51PM 40.4108 -95.0108 351° North 395 455 21,300 -1,920 Descending Minneapolis Center
03:52PM 40.5167 -95.0325 351° North 395 455 19,400 -1,860 Descending Minneapolis Center
03:53PM 40.6244 -95.0542 353° North 390 449 17,600 -1,740 Descending Minneapolis Center
03:55PM 40.7656 -95.0769 318° Northwest 375 432 15,700 -1,620 Descending Minneapolis Center
03:55PM 40.8144 -95.1358 319° Northwest 370 426 14,500 -1,380 Descending Minneapolis Center
03:56PM 40.8881 -95.2200 320° Northwest 347 399 13,200 -1,320 Descending Minneapolis Center
03:57PM 40.9575 -95.2961 318° Northwest 342 394 11,900 -1,380 Descending Minneapolis Center
03:58PM 41.0289 -95.3806 318° Northwest 342 394 10,500 -1,500 Descending Minneapolis Center
04:00PM 41.1183 -95.4878 317° Northwest 329 379 8,800 -1,620 Descending Minneapolis Center
04:00PM 41.1794 -95.5642 317° Northwest 326 375 7,300 -1,620 Descending Minneapolis Center
04:02PM 41.2464 -95.6464 318° Northwest 331 381 5,700 -1,320 Descending Minneapolis Center
04:02PM 41.2992 -95.7092 315° West 330 380 4,800 -840 Descending Minneapolis Center
04:03PM 41.3581 -95.7886 303° West 322 371 4,100 -900 Descending Minneapolis Center
04:04PM 41.4017 -95.8786 253° West 300 345 3,100 -900 Descending Minneapolis Center
04:05PM 41.3856 -95.9497 172° South 221 254 2,400 -600 Descending Minneapolis Center
04:06PM 41.3503 -95.9428 145° Southeast 128 147 2,000 -600 Descending Minneapolis Center
04:07PM 41.3197 -95.9139 145° Southeast 89 102 1,200 -840 Descending Minneapolis Center